createdAt,value
2022-07-25T00:00:07.958Z,20.22
2022-07-25T00:00:34.720Z,20.22
2022-07-25T00:00:55.486Z,20.22
2022-07-25T00:01:26.620Z,20.22
2022-07-25T00:01:58.684Z,20.22
2022-07-25T00:02:30.756Z,20.22
2022-07-25T00:03:02.792Z,20.27
2022-07-25T00:03:34.004Z,20.27
2022-07-25T00:03:51.353Z,20.27
2022-07-25T00:04:22.773Z,20.27
2022-07-25T00:04:40.046Z,20.27
2022-07-25T00:05:10.850Z,20.27
2022-07-25T00:05:37.832Z,20.27
2022-07-25T00:06:00.200Z,20.27
2022-07-25T00:06:30.611Z,20.27
2022-07-25T00:07:03.571Z,20.27
2022-07-25T00:07:34.923Z,20.27
2022-07-25T00:08:08.165Z,20.27
2022-07-25T00:08:33.862Z,20.27
2022-07-25T00:08:55.357Z,20.27
2022-07-25T00:09:27.510Z,20.27
2022-07-25T00:09:59.123Z,20.27
2022-07-25T00:10:30.897Z,20.27
2022-07-25T00:11:03.338Z,20.27
2022-07-25T00:11:35.519Z,20.27
2022-07-25T00:12:08.115Z,20.27
2022-07-25T00:12:33.666Z,20.27
2022-07-25T00:12:54.747Z,20.22
2022-07-25T00:13:27.259Z,20.22
2022-07-25T00:13:58.573Z,20.22
2022-07-25T00:14:31.697Z,20.22
2022-07-25T00:15:02.965Z,20.22
2022-07-25T00:15:33.967Z,20.22
2022-07-25T00:15:52.516Z,20.22
2022-07-25T00:16:23.515Z,20.27
2022-07-25T00:16:55.393Z,20.38
2022-07-25T00:17:26.721Z,20.50
2022-07-25T00:17:58.558Z,20.50
2022-07-25T00:18:31.483Z,20.61
2022-07-25T00:19:02.574Z,20.61
2022-07-25T00:19:33.817Z,20.61
2022-07-25T00:19:50.754Z,20.77
2022-07-25T00:20:23.488Z,20.88
2022-07-25T00:20:41.325Z,20.88
2022-07-25T00:21:11.570Z,21.00
2022-07-25T00:21:34.708Z,21.11
2022-07-25T00:21:58.652Z,21.27
2022-07-25T00:22:31.222Z,21.27
2022-07-25T00:23:02.525Z,21.38
2022-07-25T00:23:33.680Z,21.50
2022-07-25T00:23:53.143Z,21.61
2022-07-25T00:24:23.418Z,21.72
2022-07-25T00:24:40.576Z,21.72
2022-07-25T00:25:10.642Z,21.77
2022-07-25T00:25:33.829Z,21.88
2022-07-25T00:25:59.547Z,22.00
2022-07-25T00:26:30.682Z,22.00
2022-07-25T00:27:03.187Z,22.11
2022-07-25T00:27:35.723Z,22.11
2022-07-25T00:28:06.692Z,22.11
2022-07-25T00:28:33.700Z,22.22
2022-07-25T00:28:54.723Z,22.27
2022-07-25T00:29:27.574Z,22.27
2022-07-25T00:29:58.545Z,22.27
2022-07-25T00:30:32.542Z,22.27
2022-07-25T00:31:03.216Z,22.27
2022-07-25T00:31:34.654Z,22.27
2022-07-25T00:32:06.513Z,22.27
2022-07-25T00:32:33.685Z,22.27
2022-07-25T00:32:54.644Z,22.27
2022-07-25T00:33:28.442Z,22.27
2022-07-25T00:33:59.267Z,22.38
2022-07-25T00:34:30.585Z,22.38
2022-07-25T00:35:03.446Z,22.38
2022-07-25T00:35:33.847Z,22.38
2022-07-25T00:35:51.621Z,22.38
2022-07-25T00:36:23.325Z,22.38
2022-07-25T00:36:40.444Z,22.38
2022-07-25T00:37:10.588Z,22.38
2022-07-25T00:37:33.943Z,22.38
2022-07-25T00:37:59.292Z,22.38
2022-07-25T00:38:31.366Z,22.38
2022-07-25T00:39:02.495Z,22.50
2022-07-25T00:39:36.794Z,22.50
2022-07-25T00:40:07.959Z,22.50
2022-07-25T00:40:33.823Z,22.50
2022-07-25T00:40:56.318Z,22.50
2022-07-25T00:41:26.558Z,22.38
2022-07-25T00:41:59.216Z,22.38
2022-07-25T00:42:30.704Z,22.27
2022-07-25T00:43:03.278Z,22.27
2022-07-25T00:43:33.726Z,22.27
2022-07-25T00:43:51.354Z,22.27
2022-07-25T00:44:23.249Z,22.27
2022-07-25T00:44:40.356Z,22.27
2022-07-25T00:45:10.759Z,22.27
2022-07-25T00:45:33.898Z,22.27
2022-07-25T00:45:59.351Z,22.27
2022-07-25T00:46:30.815Z,22.27
2022-07-25T00:47:02.672Z,22.27
2022-07-25T00:47:35.294Z,22.27
2022-07-25T00:48:07.433Z,22.27
2022-07-25T00:48:33.915Z,22.27
2022-07-25T00:48:55.517Z,22.27
2022-07-25T00:49:27.130Z,22.27
2022-07-25T00:49:58.480Z,22.27
2022-07-25T00:50:30.718Z,22.27
2022-07-25T00:51:03.655Z,22.22
2022-07-25T00:51:34.900Z,22.22
2022-07-25T00:52:07.406Z,22.22
2022-07-25T00:52:35.926Z,22.22
2022-07-25T00:52:55.399Z,22.22
2022-07-25T00:53:27.582Z,22.22
2022-07-25T00:54:00.300Z,22.22
2022-07-25T00:54:30.586Z,22.22
2022-07-25T00:55:19.559Z,22.22
2022-07-25T00:55:50.747Z,22.11
2022-07-25T00:56:23.200Z,22.11
2022-07-25T00:56:40.451Z,22.11
2022-07-25T00:57:10.493Z,22.11
2022-07-25T00:57:33.902Z,22.11
2022-07-25T00:57:58.682Z,22.11
2022-07-25T00:58:31.214Z,22.11
2022-07-25T00:59:02.493Z,22.11
2022-07-25T00:59:34.586Z,22.11
2022-07-25T01:00:06.916Z,22.11
2022-07-25T01:00:33.654Z,22.11
2022-07-25T01:00:54.704Z,22.11
2022-07-25T01:01:26.744Z,22.11
2022-07-25T01:01:59.441Z,22.11
2022-07-25T01:02:30.880Z,22.11
2022-07-25T01:03:05.192Z,22.11
2022-07-25T01:03:33.912Z,22.11
2022-07-25T01:03:50.561Z,22.11
2022-07-25T01:04:22.629Z,22.00
2022-07-25T01:04:39.777Z,22.00
2022-07-25T01:05:14.329Z,22.00
2022-07-25T01:05:33.672Z,22.00
2022-07-25T01:05:59.748Z,22.00
2022-07-25T01:06:30.915Z,21.88
2022-07-25T01:07:02.711Z,21.88
2022-07-25T01:07:33.847Z,21.88
2022-07-25T01:07:52.273Z,21.88
2022-07-25T01:08:23.456Z,21.88
2022-07-25T01:08:40.691Z,21.88
2022-07-25T01:09:10.661Z,21.88
2022-07-25T01:09:34.038Z,21.88
2022-07-25T01:10:00.343Z,21.88
2022-07-25T01:10:30.498Z,21.88
2022-07-25T01:11:02.535Z,21.77
2022-07-25T01:11:33.774Z,21.77
2022-07-25T01:11:51.076Z,21.77
2022-07-25T01:12:23.366Z,21.88
2022-07-25T01:12:40.484Z,21.88
2022-07-25T01:13:10.573Z,21.88
2022-07-25T01:13:34.959Z,21.88
2022-07-25T01:13:58.641Z,21.88
2022-07-25T01:14:31.230Z,21.88
2022-07-25T01:15:19.026Z,21.88
2022-07-25T01:15:51.451Z,21.88
2022-07-25T01:16:22.693Z,21.88
2022-07-25T01:16:40.209Z,21.88
2022-07-25T01:17:10.665Z,21.88
2022-07-25T01:17:33.862Z,21.88
2022-07-25T01:17:59.728Z,21.88
2022-07-25T01:18:31.559Z,21.88
2022-07-25T01:19:02.646Z,21.88
2022-07-25T01:19:35.724Z,21.88
2022-07-25T01:20:06.615Z,21.88
2022-07-25T01:20:34.686Z,21.88
2022-07-25T01:20:54.790Z,21.88
2022-07-25T01:21:27.268Z,21.88
2022-07-25T01:21:58.525Z,21.88
2022-07-25T01:22:30.650Z,21.88
2022-07-25T01:23:02.683Z,21.88
2022-07-25T01:23:34.067Z,21.88
2022-07-25T01:23:51.179Z,21.88
2022-07-25T01:24:22.477Z,21.88
2022-07-25T01:24:40.730Z,21.88
2022-07-25T01:25:11.766Z,21.88
2022-07-25T01:25:33.679Z,21.77
2022-07-25T01:25:58.843Z,21.77
2022-07-25T01:26:31.305Z,21.77
2022-07-25T01:27:02.555Z,21.77
2022-07-25T01:27:35.873Z,21.77
2022-07-25T01:28:06.612Z,21.72
2022-07-25T01:28:33.787Z,21.72
2022-07-25T01:28:54.471Z,21.72
2022-07-25T01:29:26.562Z,21.72
2022-07-25T01:29:58.722Z,21.72
2022-07-25T01:30:30.825Z,21.61
2022-07-25T01:31:02.536Z,21.61
2022-07-25T01:31:33.790Z,21.61
2022-07-25T01:31:50.577Z,21.61
2022-07-25T01:32:23.270Z,21.50
2022-07-25T01:32:41.585Z,21.50
2022-07-25T01:33:12.898Z,21.50
2022-07-25T01:33:33.804Z,21.50
2022-07-25T01:33:59.585Z,21.50
2022-07-25T01:34:32.057Z,21.50
2022-07-25T01:35:02.907Z,21.50
2022-07-25T01:35:33.852Z,21.50
2022-07-25T01:35:53.354Z,21.50
2022-07-25T01:36:22.526Z,21.50
2022-07-25T01:36:39.705Z,21.50
2022-07-25T01:37:11.529Z,21.38
2022-07-25T01:37:35.389Z,21.38
2022-07-25T01:37:59.603Z,21.38
2022-07-25T01:38:31.314Z,21.27
2022-07-25T01:39:03.592Z,21.27
2022-07-25T01:39:35.799Z,21.22
2022-07-25T01:40:06.604Z,21.22
2022-07-25T01:40:33.853Z,21.22
2022-07-25T01:40:55.493Z,21.11
2022-07-25T01:41:27.573Z,21.11
2022-07-25T01:41:59.145Z,21.11
2022-07-25T01:42:30.537Z,21.11
2022-07-25T01:43:02.552Z,21.00
2022-07-25T01:43:34.754Z,21.00
2022-07-25T01:44:07.165Z,21.00
2022-07-25T01:44:35.110Z,21.00
2022-07-25T01:44:54.458Z,21.00
2022-07-25T01:45:27.508Z,21.00
2022-07-25T01:45:58.683Z,21.00
2022-07-25T01:46:30.517Z,21.00
2022-07-25T01:47:02.511Z,21.00
2022-07-25T01:47:34.685Z,21.00
2022-07-25T01:48:07.638Z,21.00
2022-07-25T01:48:34.759Z,21.00
2022-07-25T01:48:55.254Z,21.00
2022-07-25T01:49:26.452Z,21.00
2022-07-25T01:49:59.267Z,21.00
2022-07-25T01:50:32.812Z,21.00
2022-07-25T01:51:03.167Z,21.00
2022-07-25T01:51:33.683Z,21.00
2022-07-25T01:52:05.938Z,21.00
2022-07-25T01:52:22.607Z,21.00
2022-07-25T01:52:40.324Z,21.00
2022-07-25T01:53:11.084Z,21.00
2022-07-25T01:53:34.771Z,21.00
2022-07-25T01:53:58.476Z,21.00
2022-07-25T01:54:30.634Z,21.00
2022-07-25T01:55:03.375Z,21.00
2022-07-25T01:55:33.825Z,21.00
2022-07-25T01:56:06.069Z,21.00
2022-07-25T01:56:23.889Z,21.00
2022-07-25T01:56:41.853Z,21.00
2022-07-25T01:57:30.709Z,21.00
2022-07-25T01:57:59.416Z,21.00
2022-07-25T01:58:30.491Z,20.88
2022-07-25T01:59:02.643Z,20.88
2022-07-25T01:59:35.871Z,20.88
2022-07-25T02:00:08.824Z,20.88
2022-07-25T02:00:33.834Z,20.88
2022-07-25T02:00:55.499Z,20.77
2022-07-25T02:01:26.689Z,20.77
2022-07-25T02:02:00.309Z,20.72
2022-07-25T02:02:31.454Z,20.72
2022-07-25T02:03:02.481Z,20.72
2022-07-25T02:03:33.682Z,20.72
2022-07-25T02:04:06.280Z,20.72
2022-07-25T02:04:23.420Z,20.72
2022-07-25T02:04:41.561Z,20.72
2022-07-25T02:05:10.658Z,20.72
2022-07-25T02:05:34.631Z,20.72
2022-07-25T02:05:58.728Z,20.72
2022-07-25T02:06:30.647Z,20.72
2022-07-25T02:07:04.311Z,20.72
2022-07-25T02:07:33.729Z,20.61
2022-07-25T02:07:51.368Z,20.61
2022-07-25T02:08:22.645Z,20.61
2022-07-25T02:08:41.005Z,20.61
2022-07-25T02:09:11.173Z,20.61
2022-07-25T02:09:33.894Z,20.61
2022-07-25T02:09:58.510Z,20.61
2022-07-25T02:10:30.869Z,20.50
2022-07-25T02:11:02.748Z,20.50
2022-07-25T02:11:34.585Z,20.50
2022-07-25T02:12:06.479Z,20.50
2022-07-25T02:12:33.669Z,20.50
2022-07-25T02:12:54.582Z,20.50
2022-07-25T02:13:27.179Z,20.50
2022-07-25T02:13:58.495Z,20.38
2022-07-25T02:14:32.342Z,20.38
2022-07-25T02:15:03.109Z,20.38
2022-07-25T02:15:33.768Z,20.38
2022-07-25T02:16:07.131Z,20.38
2022-07-25T02:16:34.683Z,20.38
2022-07-25T02:16:54.498Z,20.38
2022-07-25T02:17:26.582Z,20.38
2022-07-25T02:18:01.397Z,20.38
2022-07-25T02:18:30.584Z,20.38
2022-07-25T02:19:02.420Z,20.38
2022-07-25T02:19:33.677Z,20.38
2022-07-25T02:20:05.998Z,20.38
2022-07-25T02:20:23.230Z,20.38
2022-07-25T02:20:40.452Z,20.27
2022-07-25T02:21:13.885Z,20.27
2022-07-25T02:21:33.735Z,20.27
2022-07-25T02:21:59.362Z,20.27
2022-07-25T02:22:30.621Z,20.27
2022-07-25T02:23:04.095Z,20.27
2022-07-25T02:23:33.863Z,20.27
2022-07-25T02:23:51.134Z,20.27
2022-07-25T02:24:24.006Z,20.27
2022-07-25T02:24:41.807Z,20.22
2022-07-25T02:25:10.734Z,20.22
2022-07-25T02:25:35.757Z,20.22
2022-07-25T02:25:58.547Z,20.22
2022-07-25T02:26:30.800Z,20.22
2022-07-25T02:27:03.365Z,20.22
2022-07-25T02:27:33.701Z,20.22
2022-07-25T02:28:06.008Z,20.22
2022-07-25T02:28:23.195Z,20.22
2022-07-25T02:28:40.726Z,20.22
2022-07-25T02:29:10.550Z,20.22
2022-07-25T02:29:33.839Z,20.22
2022-07-25T02:29:58.587Z,20.22
2022-07-25T02:30:31.697Z,20.22
2022-07-25T02:31:03.406Z,20.22
2022-07-25T02:31:33.682Z,20.22
2022-07-25T02:31:51.352Z,20.22
2022-07-25T02:32:22.601Z,20.22
2022-07-25T02:32:40.631Z,20.22
2022-07-25T02:33:10.465Z,20.22
2022-07-25T02:33:36.857Z,20.22
2022-07-25T02:33:59.098Z,20.22
2022-07-25T02:34:31.341Z,20.22
2022-07-25T02:35:02.762Z,20.22
2022-07-25T02:35:34.850Z,20.22
2022-07-25T02:36:06.450Z,20.22
2022-07-25T02:36:35.580Z,20.22
2022-07-25T02:36:56.052Z,20.22
2022-07-25T02:37:27.289Z,20.22
2022-07-25T02:37:59.235Z,20.22
2022-07-25T02:38:34.817Z,20.22
2022-07-25T02:39:02.599Z,20.22
2022-07-25T02:39:34.744Z,20.22
2022-07-25T02:40:06.561Z,20.22
2022-07-25T02:40:34.503Z,20.22
2022-07-25T02:40:54.616Z,20.11
2022-07-25T02:41:27.953Z,20.11
2022-07-25T02:41:58.651Z,20.11
2022-07-25T02:42:31.416Z,20.11
2022-07-25T02:43:02.519Z,20.11
2022-07-25T02:43:33.657Z,20.11
2022-07-25T02:44:08.317Z,20.11
2022-07-25T02:44:33.845Z,20.11
2022-07-25T02:44:54.390Z,20.11
2022-07-25T02:45:28.216Z,20.11
2022-07-25T02:45:58.656Z,20.11
2022-07-25T02:46:31.556Z,20.11
2022-07-25T02:47:02.415Z,20.11
2022-07-25T02:47:36.489Z,20.00
2022-07-25T02:48:06.599Z,20.00
2022-07-25T02:48:33.777Z,20.00
2022-07-25T02:48:54.545Z,20.00
2022-07-25T02:49:26.458Z,20.00
2022-07-25T02:49:59.793Z,20.00
2022-07-25T02:50:30.706Z,20.00
2022-07-25T02:51:02.468Z,20.00
2022-07-25T02:51:36.024Z,20.00
2022-07-25T02:52:06.516Z,20.00
2022-07-25T02:52:33.662Z,19.88
2022-07-25T02:52:54.585Z,19.88
2022-07-25T02:53:47.230Z,19.88
2022-07-25T02:53:58.988Z,19.88
2022-07-25T02:54:32.281Z,19.88
2022-07-25T02:55:09.305Z,19.88
2022-07-25T02:55:34.727Z,19.88
2022-07-25T02:56:06.418Z,19.88
2022-07-25T02:56:34.179Z,19.88
2022-07-25T02:56:54.554Z,19.88
2022-07-25T02:57:26.606Z,19.88
2022-07-25T02:57:59.118Z,19.88
2022-07-25T02:58:30.474Z,19.88
2022-07-25T02:59:03.267Z,19.88
2022-07-25T02:59:35.123Z,19.88
2022-07-25T03:00:07.416Z,19.88
2022-07-25T03:00:34.864Z,19.88
2022-07-25T03:00:54.635Z,19.77
2022-07-25T03:01:26.668Z,19.77
2022-07-25T03:01:58.587Z,19.72
2022-07-25T03:02:30.448Z,19.72
2022-07-25T03:03:02.390Z,19.61
2022-07-25T03:03:33.737Z,19.61
2022-07-25T03:03:50.395Z,19.61
2022-07-25T03:04:23.150Z,19.61
2022-07-25T03:04:40.385Z,19.61
2022-07-25T03:05:10.576Z,19.50
2022-07-25T03:05:34.437Z,19.50
2022-07-25T03:06:00.910Z,19.50
2022-07-25T03:06:30.583Z,19.50
2022-07-25T03:07:02.387Z,19.50
2022-07-25T03:07:33.685Z,19.61
2022-07-25T03:08:05.883Z,19.61
2022-07-25T03:08:23.139Z,19.61
2022-07-25T03:08:40.242Z,19.61
2022-07-25T03:09:10.426Z,19.50
2022-07-25T03:09:33.743Z,19.50
2022-07-25T03:09:59.218Z,19.50
2022-07-25T03:10:30.743Z,19.50
2022-07-25T03:11:03.177Z,19.50
2022-07-25T03:11:33.805Z,19.50
2022-07-25T03:11:50.281Z,19.50
2022-07-25T03:12:22.484Z,19.61
2022-07-25T03:12:39.678Z,19.61
2022-07-25T03:13:11.135Z,19.61
2022-07-25T03:13:34.495Z,19.61
2022-07-25T03:13:58.417Z,19.50
2022-07-25T03:14:31.369Z,19.50
2022-07-25T03:15:19.633Z,19.50
2022-07-25T03:15:51.246Z,19.38
2022-07-25T03:16:24.018Z,19.38
2022-07-25T03:16:41.105Z,19.38
2022-07-25T03:17:11.292Z,19.38
2022-07-25T03:17:33.848Z,19.27
2022-07-25T03:17:58.681Z,19.27
2022-07-25T03:18:31.425Z,19.27
2022-07-25T03:19:02.404Z,19.22
2022-07-25T03:19:34.719Z,19.22
2022-07-25T03:20:06.693Z,19.22
2022-07-25T03:20:33.763Z,19.22
2022-07-25T03:20:54.549Z,19.22
2022-07-25T03:21:27.258Z,19.11
2022-07-25T03:21:58.575Z,19.11
2022-07-25T03:22:31.131Z,19.11
2022-07-25T03:23:02.413Z,19.11
2022-07-25T03:23:34.595Z,19.11
2022-07-25T03:24:06.714Z,19.11
2022-07-25T03:24:33.663Z,19.11
2022-07-25T03:24:54.632Z,19.11
2022-07-25T03:25:26.499Z,19.11
2022-07-25T03:25:59.298Z,19.11
2022-07-25T03:26:32.673Z,19.11
2022-07-25T03:27:02.599Z,19.11
2022-07-25T03:27:33.874Z,19.11
2022-07-25T03:27:51.178Z,19.11
2022-07-25T03:28:23.340Z,19.11
2022-07-25T03:28:40.450Z,19.11
2022-07-25T03:29:11.303Z,19.11
2022-07-25T03:29:33.736Z,19.11
2022-07-25T03:29:58.478Z,19.11
2022-07-25T03:30:32.455Z,19.00
2022-07-25T03:31:02.685Z,19.00
2022-07-25T03:31:36.122Z,19.00
2022-07-25T03:32:06.453Z,18.88
2022-07-25T03:32:33.857Z,18.88
2022-07-25T03:33:10.602Z,18.88
2022-07-25T03:33:33.906Z,18.88
2022-07-25T03:33:59.097Z,18.88
2022-07-25T03:34:30.439Z,18.88
2022-07-25T03:35:02.718Z,18.88
2022-07-25T03:35:35.859Z,18.88
2022-07-25T03:36:07.063Z,18.88
2022-07-25T03:36:34.987Z,18.88
2022-07-25T03:36:54.508Z,18.88
2022-07-25T03:37:27.073Z,18.88
2022-07-25T03:37:58.485Z,18.88
2022-07-25T03:38:30.527Z,18.88
2022-07-25T03:39:05.306Z,18.88
2022-07-25T03:39:35.711Z,18.88
2022-07-25T03:40:08.471Z,19.00
2022-07-25T03:40:36.937Z,19.00
2022-07-25T03:40:55.508Z,19.00
2022-07-25T03:41:28.020Z,19.11
2022-07-25T03:41:58.666Z,19.11
2022-07-25T03:42:35.414Z,19.11
2022-07-25T03:43:02.456Z,19.00
2022-07-25T03:43:36.376Z,19.00
2022-07-25T03:44:07.194Z,19.00
2022-07-25T03:44:33.904Z,19.00
2022-07-25T03:44:55.427Z,19.00
2022-07-25T03:45:26.793Z,19.00
2022-07-25T03:45:58.807Z,19.11
2022-07-25T03:46:30.777Z,19.11
2022-07-25T03:47:02.469Z,19.11
2022-07-25T03:47:33.994Z,19.11
2022-07-25T03:47:50.632Z,19.00
2022-07-25T03:48:25.287Z,19.00
2022-07-25T03:48:41.969Z,19.00
2022-07-25T03:49:10.610Z,19.00
2022-07-25T03:49:33.891Z,19.11
2022-07-25T03:49:58.994Z,19.22
2022-07-25T03:50:32.974Z,19.22
2022-07-25T03:51:06.691Z,19.22
2022-07-25T03:51:33.793Z,19.22
2022-07-25T03:51:51.450Z,19.22
2022-07-25T03:52:22.854Z,19.22
2022-07-25T03:52:40.404Z,19.22
2022-07-25T03:53:12.629Z,19.22
2022-07-25T03:53:33.828Z,19.22
2022-07-25T03:53:58.565Z,19.22
2022-07-25T03:54:31.366Z,19.22
2022-07-25T03:55:04.180Z,19.22
2022-07-25T03:55:34.317Z,19.22
2022-07-25T03:55:51.406Z,19.11
2022-07-25T03:56:22.611Z,19.11
2022-07-25T03:56:43.953Z,19.11
2022-07-25T03:57:11.158Z,19.11
2022-07-25T03:57:33.820Z,19.22
2022-07-25T03:57:58.450Z,19.22
2022-07-25T03:58:31.674Z,19.22
2022-07-25T03:59:02.698Z,19.22
2022-07-25T03:59:34.023Z,19.22
2022-07-25T03:59:50.287Z,19.22
2022-07-25T04:00:24.373Z,19.22
2022-07-25T04:00:41.402Z,19.22
2022-07-25T04:01:12.161Z,19.22
2022-07-25T04:01:35.849Z,19.22
2022-07-25T04:01:58.531Z,19.22
2022-07-25T04:02:31.442Z,19.22
2022-07-25T04:03:03.679Z,19.22
2022-07-25T04:03:35.890Z,19.22
2022-07-25T04:04:06.857Z,19.27
2022-07-25T04:04:34.037Z,19.27
2022-07-25T04:04:55.214Z,19.27
2022-07-25T04:05:26.617Z,19.27
2022-07-25T04:05:58.483Z,19.27
2022-07-25T04:06:30.575Z,19.27
2022-07-25T04:07:02.630Z,19.27
2022-07-25T04:07:33.983Z,19.27
2022-07-25T04:07:53.598Z,19.22
2022-07-25T04:08:25.295Z,19.22
2022-07-25T04:08:43.870Z,19.22
2022-07-25T04:09:10.658Z,19.22
2022-07-25T04:09:35.002Z,19.22
2022-07-25T04:09:59.401Z,19.27
2022-07-25T04:10:31.758Z,19.27
2022-07-25T04:11:02.584Z,19.38
2022-07-25T04:11:35.415Z,19.38
2022-07-25T04:12:06.451Z,19.38
2022-07-25T04:12:33.963Z,19.38
2022-07-25T04:12:54.682Z,19.38
2022-07-25T04:13:28.241Z,19.38
2022-07-25T04:13:58.481Z,19.38
2022-07-25T04:14:31.308Z,19.38
2022-07-25T04:15:02.896Z,19.38
2022-07-25T04:15:33.955Z,19.38
2022-07-25T04:15:51.420Z,19.38
2022-07-25T04:16:22.991Z,19.38
2022-07-25T04:16:39.833Z,19.38
2022-07-25T04:17:11.195Z,19.38
2022-07-25T04:17:34.675Z,19.38
2022-07-25T04:17:59.331Z,19.38
2022-07-25T04:18:31.253Z,19.38
2022-07-25T04:19:02.642Z,19.38
2022-07-25T04:19:33.929Z,19.38
2022-07-25T04:19:52.153Z,19.38
2022-07-25T04:20:22.756Z,19.38
2022-07-25T04:20:40.659Z,19.38
2022-07-25T04:21:15.072Z,19.38
2022-07-25T04:21:33.799Z,19.38
2022-07-25T04:22:01.876Z,19.38
2022-07-25T04:22:30.666Z,19.38
2022-07-25T04:23:02.698Z,19.38
2022-07-25T04:23:35.012Z,19.38
2022-07-25T04:24:06.876Z,19.38
2022-07-25T04:24:33.969Z,19.38
2022-07-25T04:25:10.824Z,19.38
2022-07-25T04:25:33.911Z,19.50
2022-07-25T04:25:59.511Z,19.50
2022-07-25T04:26:32.690Z,19.50
2022-07-25T04:27:02.707Z,19.50
2022-07-25T04:27:33.968Z,19.61
2022-07-25T04:27:50.274Z,19.61
2022-07-25T04:28:23.653Z,19.61
2022-07-25T04:28:41.585Z,19.61
2022-07-25T04:29:11.376Z,19.61
2022-07-25T04:29:33.831Z,19.61
2022-07-25T04:29:58.463Z,19.61
2022-07-25T04:30:30.786Z,19.72
2022-07-25T04:31:02.676Z,19.77
2022-07-25T04:31:34.013Z,19.77
2022-07-25T04:31:50.397Z,19.77
2022-07-25T04:32:24.117Z,19.77
2022-07-25T04:32:41.842Z,19.77
2022-07-25T04:33:10.942Z,19.77
2022-07-25T04:33:33.852Z,19.88
2022-07-25T04:34:14.531Z,19.88
2022-07-25T04:34:33.958Z,20.00
2022-07-25T04:35:02.701Z,20.00
2022-07-25T04:35:34.884Z,20.00
2022-07-25T04:36:06.482Z,20.00
2022-07-25T04:36:33.967Z,20.00
2022-07-25T04:36:54.626Z,20.00
2022-07-25T04:37:26.559Z,20.00
2022-07-25T04:38:00.258Z,20.11
2022-07-25T04:38:30.636Z,20.11
2022-07-25T04:39:02.597Z,20.11
2022-07-25T04:39:35.392Z,20.11
2022-07-25T04:40:06.684Z,20.11
2022-07-25T04:40:34.618Z,20.11
2022-07-25T04:40:57.057Z,20.11
2022-07-25T04:41:27.183Z,20.22
2022-07-25T04:41:58.431Z,20.22
2022-07-25T04:42:30.619Z,20.27
2022-07-25T04:43:02.885Z,20.27
2022-07-25T04:43:33.996Z,20.27
2022-07-25T04:43:52.018Z,20.27
2022-07-25T04:44:22.655Z,20.27
2022-07-25T04:44:39.732Z,20.27
2022-07-25T04:45:11.707Z,20.27
2022-07-25T04:45:35.472Z,20.27
2022-07-25T04:45:58.699Z,20.27
2022-07-25T04:46:31.428Z,20.38
2022-07-25T04:47:03.641Z,20.38
2022-07-25T04:47:33.955Z,20.38
2022-07-25T04:47:52.137Z,20.38
2022-07-25T04:48:22.565Z,20.38
2022-07-25T04:48:39.858Z,20.38
2022-07-25T04:49:11.117Z,20.38
2022-07-25T04:49:33.789Z,20.38
2022-07-25T04:49:58.497Z,20.38
2022-07-25T04:50:30.767Z,20.50
2022-07-25T04:51:02.658Z,20.50
2022-07-25T04:51:34.017Z,20.50
2022-07-25T04:51:50.297Z,20.50
2022-07-25T04:52:23.391Z,20.50
2022-07-25T04:52:41.765Z,20.50
2022-07-25T04:53:10.725Z,20.50
2022-07-25T04:53:33.816Z,20.61
2022-07-25T04:53:58.511Z,20.61
2022-07-25T04:54:31.350Z,20.61
2022-07-25T04:55:02.782Z,20.61
2022-07-25T04:55:34.071Z,20.61
2022-07-25T04:56:06.436Z,20.72
2022-07-25T04:56:36.625Z,20.72
2022-07-25T04:56:55.043Z,20.72
2022-07-25T04:57:26.620Z,20.72
2022-07-25T04:57:59.249Z,20.72
2022-07-25T04:58:30.416Z,20.77
2022-07-25T04:59:06.470Z,20.77
2022-07-25T04:59:33.929Z,20.77
2022-07-25T04:59:50.298Z,20.77
2022-07-25T05:00:23.458Z,20.77
2022-07-25T05:00:40.564Z,20.77
2022-07-25T05:01:10.692Z,20.88
2022-07-25T05:01:33.863Z,20.88
2022-07-25T05:01:59.361Z,20.88
2022-07-25T05:02:30.586Z,20.88
2022-07-25T05:03:02.626Z,20.88
2022-07-25T05:03:34.846Z,21.00
2022-07-25T05:04:06.730Z,21.00
2022-07-25T05:04:34.939Z,21.00
2022-07-25T05:04:55.431Z,21.00
2022-07-25T05:05:34.376Z,21.00
2022-07-25T05:05:58.679Z,21.00
2022-07-25T05:06:31.581Z,21.00
2022-07-25T05:07:03.133Z,21.00
2022-07-25T05:07:34.024Z,21.00
2022-07-25T05:07:50.319Z,21.11
2022-07-25T05:08:23.393Z,21.22
2022-07-25T05:08:40.551Z,21.22
2022-07-25T05:09:10.589Z,21.22
2022-07-25T05:09:33.815Z,21.22
2022-07-25T05:10:00.068Z,21.22
2022-07-25T05:10:30.608Z,21.22
2022-07-25T05:11:02.596Z,21.22
2022-07-25T05:11:34.036Z,21.22
2022-07-25T05:11:55.900Z,21.27
2022-07-25T05:12:23.221Z,21.27
2022-07-25T05:12:41.268Z,21.27
2022-07-25T05:13:10.686Z,21.27
2022-07-25T05:13:34.005Z,21.27
2022-07-25T05:13:59.108Z,21.27
2022-07-25T05:14:31.348Z,21.27
2022-07-25T05:15:02.951Z,21.27
2022-07-25T05:15:35.483Z,21.27
2022-07-25T05:16:06.874Z,21.38
2022-07-25T05:16:35.749Z,21.38
2022-07-25T05:16:54.535Z,21.38
2022-07-25T05:17:26.589Z,21.38
2022-07-25T05:17:59.403Z,21.38
2022-07-25T05:18:30.439Z,21.38
2022-07-25T05:19:03.318Z,21.38
2022-07-25T05:19:34.168Z,21.38
2022-07-25T05:19:50.966Z,21.38
2022-07-25T05:20:23.456Z,21.50
2022-07-25T05:20:41.554Z,21.50
2022-07-25T05:21:10.478Z,21.61
2022-07-25T05:21:35.241Z,21.61
2022-07-25T05:21:58.609Z,21.72
2022-07-25T05:22:30.886Z,21.72
2022-07-25T05:23:03.381Z,21.72
2022-07-25T05:23:33.806Z,21.72
2022-07-25T05:23:50.502Z,21.77
2022-07-25T05:24:22.649Z,21.88
2022-07-25T05:24:41.428Z,21.88
2022-07-25T05:25:10.616Z,21.88
2022-07-25T05:25:34.057Z,21.88
2022-07-25T05:25:58.814Z,21.88
2022-07-25T05:26:31.102Z,21.88
2022-07-25T05:27:02.451Z,21.88
2022-07-25T05:27:34.070Z,21.88
2022-07-25T05:27:51.611Z,22.11
2022-07-25T05:28:23.792Z,22.11
2022-07-25T05:28:41.275Z,22.22
2022-07-25T05:29:11.296Z,22.22
2022-07-25T05:29:34.163Z,22.22
2022-07-25T05:29:58.588Z,22.27
2022-07-25T05:30:34.344Z,22.38
2022-07-25T05:31:04.247Z,22.38
2022-07-25T05:31:34.707Z,22.38
2022-07-25T05:32:07.578Z,22.50
2022-07-25T05:32:35.118Z,22.50
2022-07-25T05:32:54.622Z,22.50
2022-07-25T05:33:35.989Z,22.50
2022-07-25T05:33:59.572Z,22.72
2022-07-25T05:34:31.339Z,22.72
2022-07-25T05:35:02.608Z,22.77
2022-07-25T05:35:34.011Z,22.77
2022-07-25T05:35:52.243Z,22.77
2022-07-25T05:36:22.607Z,22.88
2022-07-25T05:36:46.826Z,22.88
2022-07-25T05:37:11.807Z,22.88
2022-07-25T05:37:33.947Z,23.00
2022-07-25T05:37:58.718Z,23.00
2022-07-25T05:38:30.539Z,23.00
2022-07-25T05:39:03.578Z,23.00
2022-07-25T05:39:33.862Z,23.00
2022-07-25T05:39:50.470Z,23.00
2022-07-25T05:40:23.516Z,23.11
2022-07-25T05:40:43.491Z,23.11
2022-07-25T05:41:10.406Z,23.11
2022-07-25T05:41:33.953Z,23.22
2022-07-25T05:42:00.102Z,23.22
2022-07-25T05:42:31.093Z,23.22
2022-07-25T05:43:03.796Z,23.22
2022-07-25T05:43:36.707Z,23.22
2022-07-25T05:44:07.934Z,23.22
2022-07-25T05:44:34.851Z,23.22
2022-07-25T05:44:54.402Z,23.22
2022-07-25T05:45:27.740Z,23.22
2022-07-25T05:45:58.596Z,23.27
2022-07-25T05:46:30.491Z,23.27
2022-07-25T05:47:02.474Z,23.27
2022-07-25T05:47:37.947Z,23.27
2022-07-25T05:48:06.591Z,23.27
2022-07-25T05:48:33.941Z,23.27
2022-07-25T05:48:54.424Z,23.27
2022-07-25T05:49:27.343Z,23.38
2022-07-25T05:49:58.698Z,23.38
2022-07-25T05:50:31.375Z,23.38
2022-07-25T05:51:02.500Z,23.38
2022-07-25T05:51:34.871Z,23.38
2022-07-25T05:52:12.616Z,23.38
2022-07-25T05:52:35.649Z,23.38
2022-07-25T05:52:55.108Z,23.38
2022-07-25T05:53:26.719Z,23.38
2022-07-25T05:53:59.443Z,23.38
2022-07-25T05:54:30.572Z,23.38
2022-07-25T05:55:02.506Z,23.38
2022-07-25T05:55:35.500Z,23.38
2022-07-25T05:56:08.655Z,23.50
2022-07-25T05:56:34.754Z,23.50
2022-07-25T05:56:55.293Z,23.50
2022-07-25T05:57:26.487Z,23.50
2022-07-25T05:57:58.616Z,23.50
2022-07-25T05:58:30.661Z,23.50
2022-07-25T05:59:02.478Z,23.50
2022-07-25T05:59:34.732Z,23.50
2022-07-25T06:00:06.783Z,23.50
2022-07-25T06:00:34.348Z,23.50
2022-07-25T06:00:55.125Z,23.61
2022-07-25T06:01:27.176Z,23.61
2022-07-25T06:01:59.125Z,23.61
2022-07-25T06:02:30.749Z,23.61
2022-07-25T06:03:04.504Z,23.61
2022-07-25T06:03:34.117Z,23.61
2022-07-25T06:04:08.073Z,23.61
2022-07-25T06:04:33.982Z,23.61
2022-07-25T06:04:54.574Z,23.61